createdAt,value
2023-05-13T00:02:04.323Z,100926.98
2023-05-13T00:07:08.035Z,100926.52
2023-05-13T00:12:11.655Z,100924.89
2023-05-13T00:17:15.272Z,100930.60
2023-05-13T00:22:18.579Z,100936.54
2023-05-13T00:27:22.201Z,100934.19
2023-05-13T00:32:25.927Z,100933.88
2023-05-13T00:37:29.346Z,100934.08
2023-05-13T00:42:32.855Z,100925.77
2023-05-13T00:47:36.713Z,100925.80
2023-05-13T00:52:41.088Z,100924.32
2023-05-13T00:57:44.214Z,100926.55
2023-05-13T01:03:00.591Z,100925.61
2023-05-13T01:08:09.780Z,100928.91
2023-05-13T01:13:16.513Z,100932.59
2023-05-13T01:18:25.475Z,100933.00
2023-05-13T01:23:29.232Z,100934.14
2023-05-13T01:28:32.750Z,100935.91
2023-05-13T01:33:36.673Z,100941.69
2023-05-13T01:38:41.515Z,100943.73
2023-05-13T01:43:45.447Z,100941.20
2023-05-13T01:48:48.960Z,100939.95
2023-05-13T01:53:52.472Z,100941.44
2023-05-13T01:58:56.095Z,100938.59
2023-05-13T02:04:02.214Z,100943.52
2023-05-13T02:09:05.887Z,100944.40
2023-05-13T02:14:09.409Z,100945.50
2023-05-13T02:19:12.983Z,100946.91
2023-05-13T02:24:17.458Z,100947.56
2023-05-13T02:29:20.671Z,100946.91
2023-05-13T02:34:24.597Z,100943.81
2023-05-13T02:39:28.012Z,100948.11
2023-05-13T02:44:31.544Z,100946.91
2023-05-13T02:49:35.038Z,100944.35
2023-05-13T02:54:38.713Z,100950.04
2023-05-13T02:59:42.279Z,100949.55
2023-05-13T03:04:45.892Z,100946.48
2023-05-13T03:09:49.409Z,100944.52
2023-05-13T03:14:53.028Z,100946.79
2023-05-13T03:19:56.444Z,100952.11
2023-05-13T03:24:59.955Z,100953.83
2023-05-13T03:30:03.777Z,100952.08
2023-05-13T03:35:07.820Z,100953.67
2023-05-13T03:40:11.828Z,100951.71
2023-05-13T03:45:15.254Z,100953.99
2023-05-13T03:50:18.853Z,100958.61
2023-05-13T03:55:22.789Z,100957.65
2023-05-13T04:00:26.211Z,100957.43
2023-05-13T04:05:29.721Z,100960.48
2023-05-13T04:10:33.338Z,100965.70
2023-05-13T04:15:36.750Z,100964.79
2023-05-13T04:20:40.694Z,100970.16
2023-05-13T04:25:44.092Z,100975.31
2023-05-13T04:30:47.719Z,100979.90
2023-05-13T04:35:51.117Z,100979.16
2023-05-13T04:40:54.633Z,100979.87
2023-05-13T04:45:58.278Z,100979.44
2023-05-13T04:51:01.876Z,100980.57
2023-05-13T04:56:06.511Z,100985.06
2023-05-13T05:01:10.219Z,100988.08
2023-05-13T05:06:14.875Z,100989.27
2023-05-13T05:11:21.112Z,100993.50
2023-05-13T05:16:24.463Z,100995.18
2023-05-13T05:21:28.085Z,101000.95
2023-05-13T05:26:31.598Z,100995.98
2023-05-13T05:31:35.389Z,101000.41
2023-05-13T05:36:38.830Z,100996.13
2023-05-13T05:41:42.453Z,101004.03
2023-05-13T05:46:45.967Z,101004.64
2023-05-13T05:51:49.484Z,101001.37
2023-05-13T05:56:52.918Z,101005.17
2023-05-13T06:01:56.567Z,101007.64
2023-05-13T06:07:00.079Z,101003.80
2023-05-13T06:12:04.063Z,101007.73
2023-05-13T06:17:07.473Z,101002.94
2023-05-13T06:22:43.547Z,100998.08
2023-05-13T06:27:47.057Z,100998.67
2023-05-13T06:33:01.099Z,101001.37
2023-05-13T06:38:06.282Z,100999.88
2023-05-13T06:43:09.487Z,100998.95
2023-05-13T06:48:14.450Z,101005.51
2023-05-13T06:53:17.775Z,101008.77
2023-05-13T06:58:21.364Z,101009.47
2023-05-13T07:03:24.943Z,101004.12
2023-05-13T07:08:28.605Z,101002.31
2023-05-13T07:13:33.734Z,101005.38
2023-05-13T07:18:37.214Z,101003.79
2023-05-13T07:23:41.548Z,101003.31
2023-05-13T07:28:45.933Z,101004.48
2023-05-13T07:33:49.320Z,101005.42
2023-05-13T07:38:52.865Z,101002.98
2023-05-13T07:43:56.993Z,100993.88
2023-05-13T07:49:00.275Z,100992.98
2023-05-13T07:54:03.924Z,100995.42
2023-05-13T07:59:07.235Z,100989.11
2023-05-13T08:09:14.583Z,100987.16
2023-05-13T08:14:18.085Z,100985.34
2023-05-13T08:19:21.353Z,100991.44
2023-05-13T08:24:25.017Z,100986.36
2023-05-13T08:29:28.632Z,100978.30
2023-05-13T08:34:32.149Z,100980.46
2023-05-13T08:39:36.186Z,100973.55
2023-05-13T08:44:42.567Z,100974.30
2023-05-13T08:49:46.998Z,100969.67
2023-05-13T08:54:50.411Z,100966.15
2023-05-13T08:59:53.923Z,100964.02
2023-05-13T09:05:03.176Z,100960.55
2023-05-13T09:10:08.372Z,100961.48
2023-05-13T09:15:14.819Z,100960.19
2023-05-13T09:20:19.742Z,100956.97
2023-05-13T09:25:27.352Z,100953.30
2023-05-13T09:30:34.813Z,100949.49
2023-05-13T09:35:49.559Z,100939.84
2023-05-13T09:40:57.831Z,100942.16
2023-05-13T09:46:03.893Z,100944.05
2023-05-13T09:51:07.274Z,100942.75
2023-05-13T09:56:10.792Z,100944.67
2023-05-13T10:01:14.877Z,100936.16
2023-05-13T10:06:19.257Z,100935.61
2023-05-13T10:11:24.868Z,100934.55
2023-05-13T10:16:30.320Z,100932.91
2023-05-13T10:21:37.179Z,100936.86
2023-05-13T10:26:42.027Z,100934.19
2023-05-13T10:31:47.411Z,100937.97
2023-05-13T10:37:15.687Z,100937.08
2023-05-13T10:42:43.420Z,100930.39
2023-05-13T10:47:51.967Z,100925.83
2023-05-13T10:52:58.417Z,100926.62
2023-05-13T10:58:08.869Z,100921.86
2023-05-13T11:03:13.870Z,100918.95
2023-05-13T11:08:39.745Z,100918.24
2023-05-13T11:13:43.161Z,100903.57
2023-05-13T11:18:47.023Z,100907.25
2023-05-13T11:23:57.568Z,100905.59
2023-05-13T11:29:09.785Z,100902.52
2023-05-13T11:34:14.742Z,100898.52
2023-05-13T11:39:20.737Z,100901.19
2023-05-13T11:44:25.662Z,100899.13
2023-05-13T11:49:41.252Z,100898.02
2023-05-13T11:54:54.223Z,100902.09
2023-05-13T12:00:05.700Z,100893.77
2023-05-13T12:05:11.574Z,100889.46
2023-05-13T12:10:15.325Z,100889.25
2023-05-13T12:15:21.686Z,100879.48
2023-05-13T12:20:25.826Z,100879.55
2023-05-13T12:25:39.100Z,100882.08
2023-05-13T12:30:57.293Z,100889.02
2023-05-13T12:36:28.329Z,100887.48
2023-05-13T12:41:35.254Z,100877.72
2023-05-13T12:46:40.100Z,100875.54
2023-05-13T12:51:43.524Z,100877.08
2023-05-13T12:56:46.957Z,100876.20
2023-05-13T13:01:51.394Z,100873.50
2023-05-13T13:06:54.886Z,100874.27
2023-05-13T13:11:58.502Z,100868.88
2023-05-13T13:17:01.925Z,100859.31
2023-05-13T13:22:05.944Z,100856.61
2023-05-13T13:27:11.765Z,100856.53
2023-05-13T13:32:15.320Z,100855.52
2023-05-13T13:37:18.846Z,100855.70
2023-05-13T13:42:25.005Z,100850.52
2023-05-13T13:47:32.063Z,100852.95
2023-05-13T13:52:35.533Z,100847.88
2023-05-13T13:57:39.151Z,100846.29
2023-05-13T14:02:43.913Z,100852.53
2023-05-13T14:07:48.644Z,100860.23
2023-05-13T14:12:52.286Z,100855.14
2023-05-13T14:17:55.953Z,100852.45
2023-05-13T14:22:59.406Z,100852.89
2023-05-13T14:28:03.730Z,100842.87
2023-05-13T14:33:07.101Z,100842.98
2023-05-13T14:38:10.772Z,100836.73
2023-05-13T14:43:14.383Z,100832.59
2023-05-13T14:48:19.467Z,100831.86
2023-05-13T14:53:22.848Z,100829.25
2023-05-13T14:58:26.477Z,100832.45
2023-05-13T15:03:30.103Z,100831.81
2023-05-13T15:08:33.703Z,100829.59
2023-05-13T15:13:37.429Z,100835.83
2023-05-13T15:18:41.269Z,100840.09
2023-05-13T15:23:44.975Z,100844.45
2023-05-13T15:28:48.475Z,100834.95
2023-05-13T15:33:51.894Z,100837.90
2023-05-13T15:38:55.508Z,100832.77
2023-05-13T15:43:59.022Z,100828.20
2023-05-13T15:49:03.369Z,100836.08
2023-05-13T15:54:06.776Z,100825.38
2023-05-13T15:59:10.182Z,100814.31
2023-05-13T16:04:13.691Z,100810.98
2023-05-13T16:09:17.112Z,100803.58
2023-05-13T16:14:20.615Z,100800.04
2023-05-13T16:19:24.260Z,100804.92
2023-05-13T16:24:27.658Z,100807.38
2023-05-13T16:29:31.010Z,100811.02
2023-05-13T16:34:34.520Z,100820.07
2023-05-13T16:39:38.017Z,100822.38
2023-05-13T16:44:41.870Z,100819.77
2023-05-13T16:49:50.194Z,100819.81
2023-05-13T16:54:57.199Z,100814.20
2023-05-13T17:00:01.999Z,100815.98
2023-05-13T17:05:07.546Z,100812.77
2023-05-13T17:10:11.392Z,100813.98
2023-05-13T17:15:14.905Z,100815.15
2023-05-13T17:20:19.893Z,100815.02
2023-05-13T17:25:23.681Z,100809.39
2023-05-13T17:30:27.137Z,100810.45
2023-05-13T17:35:30.698Z,100812.90
2023-05-13T17:40:34.480Z,100817.95
2023-05-13T17:45:37.972Z,100823.20
2023-05-13T17:50:41.564Z,100825.23
2023-05-13T17:55:45.177Z,100814.91
2023-05-13T18:00:49.197Z,100814.31
2023-05-13T18:05:52.698Z,100806.70
2023-05-13T18:10:56.342Z,100803.25
2023-05-13T18:16:00.402Z,100803.15
2023-05-13T18:21:03.880Z,100802.64
2023-05-13T18:26:07.608Z,100804.42
2023-05-13T18:31:11.771Z,100808.94
2023-05-13T18:36:15.240Z,100810.66
2023-05-13T18:41:18.623Z,100808.91
2023-05-13T18:46:22.087Z,100808.78
2023-05-13T18:51:25.798Z,100811.95
2023-05-13T18:56:29.303Z,100814.85
2023-05-13T19:01:32.950Z,100812.73
2023-05-13T19:06:38.280Z,100816.96
2023-05-13T19:11:41.806Z,100823.59
2023-05-13T19:16:47.097Z,100821.86
2023-05-13T19:21:50.567Z,100820.48
2023-05-13T19:26:54.009Z,100817.23
2023-05-13T19:32:00.207Z,100815.71
2023-05-13T19:37:05.219Z,100826.35
2023-05-13T19:42:08.728Z,100823.13
2023-05-13T19:47:12.075Z,100821.59
2023-05-13T19:52:15.961Z,100819.16
2023-05-13T19:57:21.448Z,100816.43
2023-05-13T20:02:25.745Z,100813.73
2023-05-13T20:07:33.178Z,100812.46
2023-05-13T20:12:38.686Z,100806.23
2023-05-13T20:17:42.410Z,100807.11
2023-05-13T20:22:46.166Z,100806.45
2023-05-13T20:27:50.128Z,100798.35
2023-05-13T20:32:53.890Z,100798.17
2023-05-13T20:38:00.388Z,100796.41
2023-05-13T20:43:05.124Z,100793.90
2023-05-13T20:48:10.754Z,100794.72
2023-05-13T20:53:14.637Z,100792.55
2023-05-13T20:58:18.156Z,100792.77
2023-05-13T21:03:22.565Z,100800.27
2023-05-13T21:08:26.518Z,100796.50
2023-05-13T21:13:30.133Z,100798.37
2023-05-13T21:18:34.387Z,100797.72
2023-05-13T21:23:40.133Z,100800.63
2023-05-13T21:28:44.260Z,100797.67
2023-05-13T21:33:49.222Z,100793.36
2023-05-13T21:38:55.252Z,100793.52
2023-05-13T21:43:59.024Z,100792.80
2023-05-13T21:49:03.374Z,100795.67
2023-05-13T21:54:07.024Z,100792.64
2023-05-13T21:59:10.425Z,100793.62
2023-05-13T22:04:13.888Z,100796.70
2023-05-13T22:09:17.311Z,100798.05
2023-05-13T22:14:21.023Z,100792.75
2023-05-13T22:19:24.370Z,100790.98
2023-05-13T22:24:27.956Z,100791.18
2023-05-13T22:29:31.669Z,100789.07
2023-05-13T22:34:35.192Z,100791.02
2023-05-13T22:39:38.675Z,100789.27
2023-05-13T22:44:42.325Z,100792.25
2023-05-13T22:49:45.953Z,100796.81
2023-05-13T22:54:49.457Z,100794.65
2023-05-13T22:59:52.772Z,100794.20
2023-05-13T23:04:56.178Z,100797.83
2023-05-13T23:09:59.799Z,100792.39
2023-05-13T23:15:04.330Z,100783.88
2023-05-13T23:20:08.465Z,100784.79
2023-05-13T23:25:11.672Z,100780.04
2023-05-13T23:30:15.904Z,100774.48
2023-05-13T23:35:19.114Z,100774.15
2023-05-13T23:40:22.841Z,100770.20
2023-05-13T23:45:26.689Z,100767.16
2023-05-13T23:50:30.278Z,100762.25
2023-05-13T23:55:33.790Z,100759.52
